Time;durP1;ratioP1;P1;durP2;ratioP2;P2;SDS_P1;SDS_P2;PMS_P1;PMS_P2;Temp;Humidity;BMP_temperature;BMP_pressure;BME280_temperature;BME280_humidity;BME280_pressure;Samples;Min_cycle;Max_cycle;Signal;HPM_P1;HPM_P2
2023/10/03 00:02:21;;;;;;;;;;;12.20;99.90;;;;;;5057109;28;20518;-63
2023/10/03 00:04:48;;;;;;;;;;;12.20;99.90;;;;;;5056901;28;20229;-63
2023/10/03 00:07:14;;;;;;;;;;;12.30;99.90;;;;;;5056554;28;20380;-64
2023/10/03 00:09:41;;;;;;;;;;;12.20;99.90;;;;;;5057062;28;19909;-64
2023/10/03 00:12:08;;;;;;;;;;;12.30;99.90;;;;;;5056763;28;19909;-63
2023/10/03 00:14:34;;;;;;;;;;;12.20;99.90;;;;;;5056531;28;19909;-63
2023/10/03 00:17:00;;;;;;;;;;;12.20;99.90;;;;;;5056538;28;19919;-63
2023/10/03 00:19:26;;;;;;;;;;;12.20;99.90;;;;;;5056676;28;20365;-63
2023/10/03 00:21:51;;;;;;;;;;;12.10;99.90;;;;;;5056376;28;19923;-63
2023/10/03 00:24:17;;;;;;;;;;;12.10;99.90;;;;;;5056563;28;19954;-64
2023/10/03 00:26:44;;;;;;;;;;;12.10;99.90;;;;;;5056588;28;20320;-63
2023/10/03 00:29:13;;;;;;;;;;;12.10;99.90;;;;;;5038245;28;20436;-63
2023/10/03 00:31:39;;;;;;;;;;;12.10;99.90;;;;;;5056504;28;19909;-63
2023/10/03 00:34:05;;;;;;;;;;;12.10;99.90;;;;;;5056338;28;19912;-64
2023/10/03 00:36:31;;;;;;;;;;;12.00;99.90;;;;;;5038214;28;19920;-63
2023/10/03 00:38:57;;;;;;;;;;;12.00;99.90;;;;;;5038582;28;19916;-64
2023/10/03 00:41:23;;;;;;;;;;;11.90;99.90;;;;;;5056274;28;19915;-63
2023/10/03 00:43:53;;;;;;;;;;;12.00;99.90;;;;;;5055974;28;19954;-64
2023/10/03 00:46:18;;;;;;;;;;;11.90;99.90;;;;;;5056048;28;19944;-64
2023/10/03 00:48:47;;;;;;;;;;;11.90;99.90;;;;;;5056231;28;20423;-63
2023/10/03 00:51:20;;;;;;;;;;;11.90;99.90;;;;;;5055966;28;19944;-64
2023/10/03 00:53:47;;;;;;;;;;;11.80;99.90;;;;;;5056075;28;19912;-64
2023/10/03 00:56:14;;;;;;;;;;;11.80;99.90;;;;;;5038119;28;19913;-63
2023/10/03 00:58:41;;;;;;;;;;;11.80;99.90;;;;;;5044067;28;19909;-63
2023/10/03 01:01:09;;;;;;;;;;;11.80;99.90;;;;;;5058175;28;19948;-63
2023/10/03 01:03:38;;;;;;;;;;;11.70;99.90;;;;;;5075938;28;19911;-63
2023/10/03 01:06:13;;;;;;;;;;;11.70;99.90;;;;;;5057753;28;19908;-63
2023/10/03 01:08:42;;;;;;;;;;;11.70;99.90;;;;;;5074622;28;19916;-63
2023/10/03 01:11:15;;;;;;;;;;;11.60;99.90;;;;;;5075941;28;19916;-63
2023/10/03 01:13:41;;;;;;;;;;;11.60;99.90;;;;;;5075713;28;19909;-64
2023/10/03 01:16:08;;;;;;;;;;;11.60;99.90;;;;;;5075580;28;19908;-63
2023/10/03 01:18:37;;;;;;;;;;;11.60;99.90;;;;;;5075901;28;19908;-63
2023/10/03 01:21:05;;;;;;;;;;;11.60;99.90;;;;;;5075637;28;19908;-63
2023/10/03 01:23:34;;;;;;;;;;;11.60;99.90;;;;;;5075821;28;19908;-63
2023/10/03 01:26:00;;;;;;;;;;;11.50;99.90;;;;;;5076012;28;19908;-63
2023/10/03 01:28:27;;;;;;;;;;;11.60;99.90;;;;;;5075438;28;19908;-63
2023/10/03 01:30:52;;;;;;;;;;;11.50;99.90;;;;;;5075642;28;20361;-63
2023/10/03 01:33:19;;;;;;;;;;;11.50;99.90;;;;;;5057777;28;19908;-63
2023/10/03 01:35:44;;;;;;;;;;;11.50;99.90;;;;;;5075401;28;19924;-63
2023/10/03 01:38:14;;;;;;;;;;;11.40;99.90;;;;;;5075774;28;20229;-63
2023/10/03 01:40:40;;;;;;;;;;;11.50;99.90;;;;;;5075697;28;20285;-63
2023/10/03 01:43:07;;;;;;;;;;;11.50;99.90;;;;;;5075074;28;19908;-63
2023/10/03 01:45:33;;;;;;;;;;;11.40;99.90;;;;;;5075550;28;19908;-63
2023/10/03 01:47:59;;;;;;;;;;;11.50;99.90;;;;;;5074191;28;19962;-63
2023/10/03 01:50:26;;;;;;;;;;;11.50;99.90;;;;;;5074042;28;19912;-63
2023/10/03 01:52:52;;;;;;;;;;;11.40;99.90;;;;;;5057613;28;19908;-64
2023/10/03 01:55:18;;;;;;;;;;;11.40;99.90;;;;;;5075472;28;19999;-63
2023/10/03 01:57:46;;;;;;;;;;;11.40;99.90;;;;;;5073628;28;20006;-63
2023/10/03 02:00:25;;;;;;;;;;;11.40;99.90;;;;;;5054361;28;19962;-63
2023/10/03 02:02:52;;;;;;;;;;;11.40;99.90;;;;;;5055405;28;19963;-63
2023/10/03 02:05:23;;;;;;;;;;;11.30;99.90;;;;;;5055124;28;19935;-62
2023/10/03 02:07:51;;;;;;;;;;;11.30;99.90;;;;;;5055236;28;19966;-63
2023/10/03 02:10:18;;;;;;;;;;;11.30;99.90;;;;;;5058261;28;19909;-63
2023/10/03 02:12:50;;;;;;;;;;;11.30;99.90;;;;;;5040826;28;19911;-63
2023/10/03 02:15:26;;;;;;;;;;;11.30;99.90;;;;;;5059005;28;20370;-63
2023/10/03 02:17:53;;;;;;;;;;;11.30;99.90;;;;;;5041107;28;19919;-63
2023/10/03 02:20:20;;;;;;;;;;;11.20;99.90;;;;;;5040844;28;19908;-63
2023/10/03 02:22:53;;;;;;;;;;;11.30;99.90;;;;;;5058833;28;20322;-63
2023/10/03 02:25:20;;;;;;;;;;;11.20;99.90;;;;;;5040972;28;19909;-64
2023/10/03 02:27:47;;;;;;;;;;;11.20;99.90;;;;;;5058461;28;19909;-63
2023/10/03 02:30:13;;;;;;;;;;;11.30;99.90;;;;;;5040812;28;19916;-63
2023/10/03 02:32:40;;;;;;;;;;;11.20;99.90;;;;;;5058660;28;19908;-63
2023/10/03 02:35:08;;;;;;;;;;;11.10;99.90;;;;;;5057242;28;19931;-63
2023/10/03 02:37:34;;;;;;;;;;;11.10;99.90;;;;;;5040752;28;20385;-63
2023/10/03 02:40:00;;;;;;;;;;;11.10;99.90;;;;;;5040691;28;19915;-63
2023/10/03 02:42:26;;;;;;;;;;;11.00;99.90;;;;;;5058115;28;19913;-63
2023/10/03 02:44:53;;;;;;;;;;;10.90;99.90;;;;;;5040633;28;19909;-63
2023/10/03 02:47:18;;;;;;;;;;;10.90;99.90;;;;;;5040534;28;19909;-63
2023/10/03 02:49:45;;;;;;;;;;;10.90;99.90;;;;;;5058122;28;19912;-63
2023/10/03 02:52:11;;;;;;;;;;;10.80;99.90;;;;;;5040541;28;19908;-63
2023/10/03 02:54:37;;;;;;;;;;;10.80;99.90;;;;;;5040356;28;19996;-64
2023/10/03 02:57:04;;;;;;;;;;;11.00;99.90;;;;;;5040094;28;20004;-63
2023/10/03 02:59:29;;;;;;;;;;;11.00;99.90;;;;;;5054150;28;19908;-63
2023/10/03 03:01:56;;;;;;;;;;;11.00;99.90;;;;;;5077010;28;19908;-63
2023/10/03 03:04:23;;;;;;;;;;;10.90;99.90;;;;;;5076525;28;19926;-64
2023/10/03 03:06:51;;;;;;;;;;;10.90;99.90;;;;;;5060052;28;20437;-63
2023/10/03 03:09:23;;;;;;;;;;;10.70;99.90;;;;;;5076691;28;19946;-63
2023/10/03 03:11:50;;;;;;;;;;;10.80;99.90;;;;;;5076693;28;19908;-63
2023/10/03 03:14:16;;;;;;;;;;;10.70;99.90;;;;;;5059807;28;19955;-64
2023/10/03 03:16:42;;;;;;;;;;;10.70;99.90;;;;;;5077910;28;19912;-63
2023/10/03 03:19:09;;;;;;;;;;;10.60;99.90;;;;;;5077610;28;19908;-63
2023/10/03 03:21:35;;;;;;;;;;;10.50;99.90;;;;;;5077178;28;19919;-63
2023/10/03 03:24:08;;;;;;;;;;;10.40;99.90;;;;;;5077822;28;19908;-63
2023/10/03 03:26:39;;;;;;;;;;;10.40;99.90;;;;;;5077424;28;20344;-63
2023/10/03 03:29:19;;;;;;;;;;;10.40;99.90;;;;;;5077719;28;20281;-63
2023/10/03 03:31:45;;;;;;;;;;;10.40;99.90;;;;;;5077724;28;19912;-63
2023/10/03 03:34:11;;;;;;;;;;;10.40;99.90;;;;;;5077323;28;20416;-63
2023/10/03 03:36:40;;;;;;;;;;;10.30;99.90;;;;;;5077562;28;20444;-63
2023/10/03 03:39:17;;;;;;;;;;;10.30;99.90;;;;;;5077563;28;20407;-63
2023/10/03 03:41:43;;;;;;;;;;;10.30;99.90;;;;;;5077201;28;19916;-63
2023/10/03 03:44:12;;;;;;;;;;;10.40;99.90;;;;;;5077158;28;19912;-63
2023/10/03 03:46:40;;;;;;;;;;;10.40;99.90;;;;;;5077353;28;19908;-63
2023/10/03 03:49:09;;;;;;;;;;;10.30;99.90;;;;;;5077281;28;19944;-63
2023/10/03 03:51:35;;;;;;;;;;;10.40;99.90;;;;;;5077298;28;20287;-63
2023/10/03 03:54:05;;;;;;;;;;;10.20;99.90;;;;;;5077274;28;19940;-62
2023/10/03 03:56:33;;;;;;;;;;;10.30;99.90;;;;;;5076539;28;19997;-63
2023/10/03 03:58:59;;;;;;;;;;;10.30;99.90;;;;;;5067347;28;19909;-63
2023/10/03 04:01:24;;;;;;;;;;;10.30;99.90;;;;;;5057051;28;20302;-63
2023/10/03 04:03:50;;;;;;;;;;;10.20;99.90;;;;;;5056815;28;20000;-63
2023/10/03 04:06:18;;;;;;;;;;;10.20;99.90;;;;;;5056887;28;19908;-63
2023/10/03 04:08:45;;;;;;;;;;;10.20;99.90;;;;;;5056927;28;19909;-62
2023/10/03 04:11:13;;;;;;;;;;;10.20;99.90;;;;;;5056647;28;20358;-63
2023/10/03 04:13:49;;;;;;;;;;;10.20;99.90;;;;;;5056364;28;19915;-63
2023/10/03 04:16:20;;;;;;;;;;;10.20;99.90;;;;;;5056765;28;19970;-63
2023/10/03 04:18:49;;;;;;;;;;;10.20;99.90;;;;;;5056552;28;19909;-63
2023/10/03 04:21:15;;;;;;;;;;;10.20;99.90;;;;;;5056522;28;20309;-63
2023/10/03 04:23:43;;;;;;;;;;;10.20;99.90;;;;;;5056532;28;19908;-63
2023/10/03 04:26:10;;;;;;;;;;;10.20;99.90;;;;;;5056149;28;19908;-63
2023/10/03 04:28:37;;;;;;;;;;;10.20;99.90;;;;;;5056459;28;19966;-64
2023/10/03 04:31:03;;;;;;;;;;;10.20;99.90;;;;;;5056710;28;19955;-63
2023/10/03 04:33:29;;;;;;;;;;;10.20;99.90;;;;;;5055496;28;20273;-63
2023/10/03 04:35:56;;;;;;;;;;;10.20;99.90;;;;;;5056274;28;20007;-63
2023/10/03 04:38:22;;;;;;;;;;;10.20;99.90;;;;;;5056373;28;19915;-63
2023/10/03 04:40:48;;;;;;;;;;;10.20;99.90;;;;;;5056177;28;20000;-63
2023/10/03 04:43:14;;;;;;;;;;;10.20;99.90;;;;;;5055977;28;20676;-63
2023/10/03 04:45:40;;;;;;;;;;;10.20;99.90;;;;;;5056140;28;19991;-63
2023/10/03 04:48:07;;;;;;;;;;;10.10;99.90;;;;;;5056019;28;19908;-63
2023/10/03 04:50:35;;;;;;;;;;;10.10;99.90;;;;;;5056089;28;19908;-63
2023/10/03 04:53:02;;;;;;;;;;;10.20;99.90;;;;;;5056473;28;19908;-63
2023/10/03 04:55:28;;;;;;;;;;;10.20;99.90;;;;;;5055540;28;20277;-63
2023/10/03 04:57:55;;;;;;;;;;;10.30;99.90;;;;;;5056541;28;19991;-63
2023/10/03 05:00:24;;;;;;;;;;;10.40;99.90;;;;;;5076079;28;19954;-63
2023/10/03 05:02:50;;;;;;;;;;;10.40;99.90;;;;;;5075659;28;19908;-63
2023/10/03 05:05:20;;;;;;;;;;;10.40;99.90;;;;;;5075964;28;19948;-63
2023/10/03 05:07:53;;;;;;;;;;;10.50;99.90;;;;;;5075806;28;20087;-63
2023/10/03 05:10:20;;;;;;;;;;;10.50;99.90;;;;;;5075863;28;19912;-63
2023/10/03 05:12:46;;;;;;;;;;;10.50;99.90;;;;;;5075458;28;19915;-63
2023/10/03 05:15:12;;;;;;;;;;;10.60;99.90;;;;;;5075986;28;19908;-63
2023/10/03 05:17:38;;;;;;;;;;;10.80;99.90;;;;;;5075529;28;19913;-63
2023/10/03 05:20:04;;;;;;;;;;;10.90;99.90;;;;;;5075846;28;19930;-63
2023/10/03 05:22:32;;;;;;;;;;;10.90;99.90;;;;;;5075455;28;19915;-63
2023/10/03 05:24:58;;;;;;;;;;;11.00;99.90;;;;;;5076150;28;20421;-64
2023/10/03 05:27:24;;;;;;;;;;;11.20;99.90;;;;;;5076298;28;19915;-63
2023/10/03 05:29:51;;;;;;;;;;;11.80;99.90;;;;;;5062066;28;19952;-63
2023/10/03 05:32:17;;;;;;;;;;;12.70;99.90;;;;;;5048087;28;19915;-63
2023/10/03 05:34:43;;;;;;;;;;;13.10;99.90;;;;;;5055313;28;19909;-63
2023/10/03 05:37:10;;;;;;;;;;;13.80;99.90;;;;;;5055539;28;19912;-63
2023/10/03 05:39:36;;;;;;;;;;;14.00;99.90;;;;;;5047463;28;19913;-63
2023/10/03 05:42:02;;;;;;;;;;;13.60;99.90;;;;;;5050823;28;19908;-63
2023/10/03 05:44:28;;;;;;;;;;;13.50;99.90;;;;;;5051595;28;19915;-63
2023/10/03 05:46:55;;;;;;;;;;;13.50;99.90;;;;;;5059131;28;19905;-63
2023/10/03 05:49:24;;;;;;;;;;;13.60;99.90;;;;;;5054013;28;19964;-64
2023/10/03 05:51:54;;;;;;;;;;;13.60;99.90;;;;;;5050931;28;19913;-63
2023/10/03 05:54:20;;;;;;;;;;;13.50;99.90;;;;;;5040039;28;19998;-63
2023/10/03 05:56:46;;;;;;;;;;;13.40;99.90;;;;;;5058538;28;19917;-63
2023/10/03 05:59:11;;;;;;;;;;;13.70;99.90;;;;;;5040147;28;19908;-63
2023/10/03 06:01:38;;;;;;;;;;;13.90;99.90;;;;;;5058053;28;19995;-64
2023/10/03 06:04:04;;;;;;;;;;;14.30;99.90;;;;;;5059215;28;19915;-64
2023/10/03 06:06:30;;;;;;;;;;;14.60;99.90;;;;;;5058771;28;19915;-64
2023/10/03 06:08:56;;;;;;;;;;;14.70;99.90;;;;;;5046255;28;19909;-64
2023/10/03 06:11:21;;;;;;;;;;;14.50;99.90;;;;;;5039050;28;20359;-64
2023/10/03 06:13:47;;;;;;;;;;;14.50;99.90;;;;;;5036986;28;19916;-64
2023/10/03 06:16:14;;;;;;;;;;;14.80;99.90;;;;;;5038671;28;19920;-64
2023/10/03 06:18:41;;;;;;;;;;;15.10;99.90;;;;;;5038539;28;20040;-64
2023/10/03 06:21:07;;;;;;;;;;;15.00;99.90;;;;;;5038991;28;19909;-64
2023/10/03 06:23:33;;;;;;;;;;;15.20;99.90;;;;;;5038311;28;19908;-64
2023/10/03 06:26:00;;;;;;;;;;;15.70;99.90;;;;;;5038749;28;19909;-64
2023/10/03 06:28:25;;;;;;;;;;;16.00;99.90;;;;;;5038356;28;19913;-64
2023/10/03 06:30:52;;;;;;;;;;;16.40;99.90;;;;;;5037290;28;19935;-64
2023/10/03 06:33:18;;;;;;;;;;;16.70;99.90;;;;;;5038776;28;19962;-64
2023/10/03 06:35:43;;;;;;;;;;;17.00;99.20;;;;;;5056166;28;20374;-64
2023/10/03 06:38:10;;;;;;;;;;;17.20;98.70;;;;;;5058058;28;20389;-64
2023/10/03 06:40:36;;;;;;;;;;;17.40;98.80;;;;;;5058448;28;19999;-64
2023/10/03 06:43:02;;;;;;;;;;;17.70;98.10;;;;;;5058901;28;19916;-64
2023/10/03 06:45:29;;;;;;;;;;;17.90;96.50;;;;;;5052192;28;19908;-54
2023/10/03 06:47:55;;;;;;;;;;;18.10;96.80;;;;;;5047263;28;20603;-54
2023/10/03 06:50:23;;;;;;;;;;;18.40;96.60;;;;;;5050385;28;19913;-54
2023/10/03 06:52:49;;;;;;;;;;;18.70;95.40;;;;;;5038716;28;19909;-54
2023/10/03 06:55:15;;;;;;;;;;;19.10;95.00;;;;;;5037366;28;19909;-54
2023/10/03 06:57:41;;;;;;;;;;;19.40;94.00;;;;;;5038591;28;19913;-54
2023/10/03 07:00:21;;;;;;;;;;;19.60;93.10;;;;;;5072947;28;20423;-65
2023/10/03 07:02:48;;;;;;;;;;;20.00;91.90;;;;;;5055720;28;19909;-65
2023/10/03 07:05:15;;;;;;;;;;;20.20;90.80;;;;;;5058123;28;19954;-65
2023/10/03 07:07:45;;;;;;;;;;;20.60;90.50;;;;;;5045474;28;19917;-65
2023/10/03 07:10:10;;;;;;;;;;;20.50;87.10;;;;;;5038108;28;20363;-65
2023/10/03 07:12:38;;;;;;;;;;;20.90;88.30;;;;;;5038297;28;19909;-65
2023/10/03 07:15:09;;;;;;;;;;;21.00;85.60;;;;;;5043555;28;19908;-65
2023/10/03 07:17:35;;;;;;;;;;;21.20;85.20;;;;;;5056858;28;20056;-65
2023/10/03 07:20:04;;;;;;;;;;;21.50;82.30;;;;;;5054772;28;19919;-65
2023/10/03 07:22:32;;;;;;;;;;;21.40;82.60;;;;;;5056140;28;19915;-65
2023/10/03 07:25:06;;;;;;;;;;;21.70;83.20;;;;;;5053766;28;19909;-65
2023/10/03 07:27:33;;;;;;;;;;;21.90;82.30;;;;;;5056424;28;19915;-65
2023/10/03 07:29:59;;;;;;;;;;;22.30;80.50;;;;;;5057015;28;20000;-65
2023/10/03 07:32:25;;;;;;;;;;;22.40;79.90;;;;;;5057330;28;20049;-65
2023/10/03 07:34:50;;;;;;;;;;;22.60;78.40;;;;;;5057333;28;20228;-65
2023/10/03 07:37:17;;;;;;;;;;;22.70;77.20;;;;;;5056885;28;19913;-65
2023/10/03 07:39:43;;;;;;;;;;;23.10;76.50;;;;;;5057309;28;19916;-65
2023/10/03 07:42:11;;;;;;;;;;;23.20;75.10;;;;;;5055544;28;19909;-65
2023/10/03 07:44:37;;;;;;;;;;;23.40;74.30;;;;;;5055217;28;20316;-65
2023/10/03 07:47:06;;;;;;;;;;;23.50;72.90;;;;;;5055956;28;20110;-65
2023/10/03 07:49:32;;;;;;;;;;;23.40;73.60;;;;;;5053761;28;19915;-65
2023/10/03 07:52:00;;;;;;;;;;;23.70;72.20;;;;;;5056321;28;20356;-65
2023/10/03 07:54:28;;;;;;;;;;;23.80;70.70;;;;;;5055406;28;19912;-65
2023/10/03 07:56:54;;;;;;;;;;;24.20;70.90;;;;;;5053466;28;19913;-65
2023/10/03 07:59:25;;;;;;;;;;;24.50;67.80;;;;;;5055783;28;19995;-65
2023/10/03 08:01:51;;;;;;;;;;;24.60;66.70;;;;;;5056883;28;19912;-65
2023/10/03 08:04:17;;;;;;;;;;;25.00;66.40;;;;;;5055780;28;19924;-65
2023/10/03 08:06:43;;;;;;;;;;;24.60;68.60;;;;;;5055388;28;19909;-65
2023/10/03 08:09:11;;;;;;;;;;;25.40;69.00;;;;;;5054915;28;20286;-65
2023/10/03 08:11:36;;;;;;;;;;;26.00;65.50;;;;;;5038977;28;19913;-66
2023/10/03 08:14:17;;;;;;;;;;;25.70;64.10;;;;;;5036378;28;20422;-66
2023/10/03 08:16:44;;;;;;;;;;;25.90;64.30;;;;;;5046738;28;19959;-65
2023/10/03 08:19:15;;;;;;;;;;;26.10;65.70;;;;;;5052025;28;20274;-66
2023/10/03 08:21:43;;;;;;;;;;;26.60;61.10;;;;;;5054767;28;19916;-66
2023/10/03 08:24:14;;;;;;;;;;;26.70;61.00;;;;;;5050044;28;19909;-66
2023/10/03 08:26:46;;;;;;;;;;;26.90;62.50;;;;;;5048575;28;19909;-66
2023/10/03 08:29:21;;;;;;;;;;;27.40;62.30;;;;;;5053715;28;19915;-66
2023/10/03 08:31:49;;;;;;;;;;;27.70;61.10;;;;;;5049487;28;20000;-67
2023/10/03 08:34:16;;;;;;;;;;;27.70;58.30;;;;;;5053347;28;20552;-66
2023/10/03 08:36:42;;;;;;;;;;;27.70;57.10;;;;;;5055656;28;20433;-66
2023/10/03 08:39:16;;;;;;;;;;;28.00;58.60;;;;;;5047451;28;19940;-66
2023/10/03 08:41:45;;;;;;;;;;;28.30;56.90;;;;;;5056152;28;20003;-66
2023/10/03 08:44:14;;;;;;;;;;;28.70;54.40;;;;;;5055664;28;19963;-66
2023/10/03 08:46:49;;;;;;;;;;;28.40;54.80;;;;;;5055601;28;20287;-66
2023/10/03 08:49:18;;;;;;;;;;;28.40;55.00;;;;;;5054111;28;19913;-66
2023/10/03 08:51:47;;;;;;;;;;;28.10;55.40;;;;;;5055629;28;19908;-66
2023/10/03 08:54:13;;;;;;;;;;;28.40;53.30;;;;;;5053768;28;19928;-66
2023/10/03 08:56:41;;;;;;;;;;;28.30;54.60;;;;;;5053570;28;19913;-65
2023/10/03 08:59:10;;;;;;;;;;;27.70;55.20;;;;;;5050566;28;19909;-66
2023/10/03 09:01:38;;;;;;;;;;;28.20;54.90;;;;;;5044136;28;19912;-66
2023/10/03 09:04:07;;;;;;;;;;;29.00;54.40;;;;;;5034900;28;19909;-66
2023/10/03 09:06:38;;;;;;;;;;;29.60;51.20;;;;;;5043142;28;19908;-66
2023/10/03 09:09:13;;;;;;;;;;;30.00;50.30;;;;;;5053782;28;19915;-66
2023/10/03 09:11:41;;;;;;;;;;;29.90;48.40;;;;;;5054050;28;19951;-66
2023/10/03 09:14:07;;;;;;;;;;;29.90;47.80;;;;;;5043776;28;19976;-66
2023/10/03 09:16:38;;;;;;;;;;;30.00;48.00;;;;;;5047141;28;19913;-66
2023/10/03 09:19:05;;;;;;;;;;;29.80;47.50;;;;;;5053812;28;19909;-66
2023/10/03 09:21:33;;;;;;;;;;;30.30;48.90;;;;;;5055200;28;19916;-66
2023/10/03 09:24:09;;;;;;;;;;;30.60;47.10;;;;;;5055414;28;19904;-66
2023/10/03 09:26:50;;;;;;;;;;;30.40;45.70;;;;;;5055602;28;19920;-66
2023/10/03 09:29:29;;;;;;;;;;;30.10;45.80;;;;;;5055536;28;19908;-66
2023/10/03 09:31:59;;;;;;;;;;;30.30;44.90;;;;;;5055267;28;20370;-66
2023/10/03 09:34:30;;;;;;;;;;;30.80;45.60;;;;;;5055551;28;19909;-67
2023/10/03 09:37:02;;;;;;;;;;;31.00;43.60;;;;;;5055112;28;19944;-67
2023/10/03 09:39:39;;;;;;;;;;;30.70;44.10;;;;;;5055567;28;19987;-67
2023/10/03 09:42:15;;;;;;;;;;;30.50;44.50;;;;;;5055339;28;19908;-66
2023/10/03 09:44:51;;;;;;;;;;;31.00;42.40;;;;;;5055005;28;19908;-66
2023/10/03 09:47:18;;;;;;;;;;;31.10;44.60;;;;;;5055279;28;20130;-66
2023/10/03 09:49:46;;;;;;;;;;;31.60;42.70;;;;;;5055209;28;19991;-66
2023/10/03 09:52:26;;;;;;;;;;;31.80;41.00;;;;;;5055247;28;19915;-66
2023/10/03 09:54:59;;;;;;;;;;;32.30;42.70;;;;;;5055136;28;19908;-66
2023/10/03 09:57:28;;;;;;;;;;;30.60;42.60;;;;;;5054931;28;19912;-66
2023/10/03 09:59:55;;;;;;;;;;;31.10;41.70;;;;;;5054972;28;20464;-67
2023/10/03 10:02:31;;;;;;;;;;;31.70;40.20;;;;;;5055166;28;19913;-66
2023/10/03 10:04:59;;;;;;;;;;;32.60;40.30;;;;;;5055032;28;20203;-66
2023/10/03 10:07:33;;;;;;;;;;;33.30;36.90;;;;;;5054750;28;20334;-66
2023/10/03 10:10:07;;;;;;;;;;;32.80;37.60;;;;;;5055199;28;19909;-66
2023/10/03 10:12:43;;;;;;;;;;;31.30;39.70;;;;;;5054447;28;20255;-66
2023/10/03 10:17:45;;;;;;;;;;;32.00;41.90;;;;;;5054775;28;20003;-66
2023/10/03 10:20:17;;;;;;;;;;;32.80;38.80;;;;;;5054927;28;19999;-66
2023/10/03 10:22:59;;;;;;;;;;;32.60;38.90;;;;;;5054989;28;19908;-66
2023/10/03 10:25:28;;;;;;;;;;;33.70;37.40;;;;;;5055058;28;19909;-66
2023/10/03 10:28:05;;;;;;;;;;;34.00;35.40;;;;;;5054848;28;19995;-66
2023/10/03 10:30:31;;;;;;;;;;;32.80;35.40;;;;;;5056667;28;19909;-64
2023/10/03 10:33:20;;;;;;;;;;;32.40;37.60;;;;;;5058657;28;19916;-67
2023/10/03 10:35:50;;;;;;;;;;;32.60;38.60;;;;;;5058233;28;19912;-67
2023/10/03 10:38:16;;;;;;;;;;;33.40;37.20;;;;;;5058470;28;19923;-66
2023/10/03 10:41:00;;;;;;;;;;;33.10;37.60;;;;;;5058537;28;19909;-66
2023/10/03 10:43:27;;;;;;;;;;;32.50;38.80;;;;;;5057788;28;19962;-66
2023/10/03 10:46:12;;;;;;;;;;;32.60;37.70;;;;;;5058408;28;19908;-66
2023/10/03 10:48:41;;;;;;;;;;;32.90;36.20;;;;;;5058168;28;20389;-66
2023/10/03 10:51:07;;;;;;;;;;;32.60;37.10;;;;;;5057787;28;19908;-67
2023/10/03 10:53:41;;;;;;;;;;;32.80;38.20;;;;;;5058339;28;20326;-66
2023/10/03 10:56:08;;;;;;;;;;;32.20;38.40;;;;;;5057653;28;19940;-66
2023/10/03 10:58:44;;;;;;;;;;;32.00;36.10;;;;;;5057862;28;20362;-67
2023/10/03 11:01:10;;;;;;;;;;;32.60;36.10;;;;;;5058100;28;19915;-67
2023/10/03 11:03:36;;;;;;;;;;;32.50;36.90;;;;;;5058010;28;20358;-67
2023/10/03 11:06:02;;;;;;;;;;;33.20;36.10;;;;;;5057769;28;20007;-67
2023/10/03 11:08:28;;;;;;;;;;;32.60;35.90;;;;;;5057853;28;20259;-67
2023/10/03 11:10:54;;;;;;;;;;;32.20;37.40;;;;;;5058039;28;19917;-66
2023/10/03 11:13:23;;;;;;;;;;;32.80;37.60;;;;;;5057001;28;19909;-66
2023/10/03 11:15:50;;;;;;;;;;;32.80;36.70;;;;;;5057497;28;19909;-67
2023/10/03 11:18:29;;;;;;;;;;;32.80;33.80;;;;;;5046202;28;19917;-67
2023/10/03 11:20:57;;;;;;;;;;;32.40;34.30;;;;;;5055664;28;19909;-67
2023/10/03 11:23:23;;;;;;;;;;;32.90;34.20;;;;;;5057358;28;19909;-67
2023/10/03 11:25:53;;;;;;;;;;;33.90;33.80;;;;;;5055985;28;19930;-67
2023/10/03 11:28:19;;;;;;;;;;;34.30;32.10;;;;;;5053034;28;19908;-66
2023/10/03 11:30:58;;;;;;;;;;;34.30;34.10;;;;;;5054374;28;19983;-67
2023/10/03 11:33:23;;;;;;;;;;;34.80;32.70;;;;;;5055601;28;19909;-67
2023/10/03 11:35:53;;;;;;;;;;;34.10;32.40;;;;;;5047675;28;19909;-67
2023/10/03 11:38:19;;;;;;;;;;;34.60;30.80;;;;;;5054915;28;20317;-67
2023/10/03 11:40:47;;;;;;;;;;;34.00;30.30;;;;;;5054034;28;19955;-67
2023/10/03 11:43:19;;;;;;;;;;;33.20;31.00;;;;;;5041821;28;20282;-67
2023/10/03 11:45:54;;;;;;;;;;;33.20;32.50;;;;;;5036837;28;19909;-65
2023/10/03 11:48:22;;;;;;;;;;;33.70;30.50;;;;;;5037188;28;19905;-67
2023/10/03 11:50:49;;;;;;;;;;;33.80;30.60;;;;;;5039196;28;19909;-67
2023/10/03 11:53:15;;;;;;;;;;;33.80;29.20;;;;;;5056339;28;20020;-67
2023/10/03 11:55:42;;;;;;;;;;;34.20;29.70;;;;;;5056411;28;19962;-67
2023/10/03 11:58:11;;;;;;;;;;;34.60;29.50;;;;;;5055611;28;20058;-67
2023/10/03 12:00:42;;;;;;;;;;;34.90;30.00;;;;;;5054745;28;20277;-67
2023/10/03 12:03:09;;;;;;;;;;;35.20;30.00;;;;;;5056272;28;20378;-67
2023/10/03 12:05:36;;;;;;;;;;;35.10;28.50;;;;;;5054290;28;19909;-67
2023/10/03 12:08:03;;;;;;;;;;;34.10;30.00;;;;;;5055785;28;19923;-67
2023/10/03 12:10:31;;;;;;;;;;;34.00;28.60;;;;;;5048085;28;19908;-67
2023/10/03 12:12:57;;;;;;;;;;;34.20;29.30;;;;;;5036192;28;20003;-67
2023/10/03 12:15:24;;;;;;;;;;;34.70;30.00;;;;;;5036712;28;19916;-67
2023/10/03 12:17:50;;;;;;;;;;;34.50;28.50;;;;;;5036448;28;19975;-66
2023/10/03 12:20:18;;;;;;;;;;;34.70;27.90;;;;;;5043794;28;19921;-67
2023/10/03 12:22:45;;;;;;;;;;;34.90;27.80;;;;;;5055740;28;19908;-67
2023/10/03 12:25:11;;;;;;;;;;;35.20;28.40;;;;;;5056380;28;19915;-67
2023/10/03 12:27:38;;;;;;;;;;;34.70;27.60;;;;;;5056058;28;20250;-67
2023/10/03 12:30:06;;;;;;;;;;;34.60;28.40;;;;;;5054397;28;20018;-67
2023/10/03 12:32:36;;;;;;;;;;;34.50;27.00;;;;;;5056379;28;19908;-67
2023/10/03 12:35:03;;;;;;;;;;;34.40;28.60;;;;;;5056069;28;19908;-67
2023/10/03 12:37:30;;;;;;;;;;;35.00;26.90;;;;;;5056186;28;19960;-67
2023/10/03 12:40:01;;;;;;;;;;;34.70;27.30;;;;;;5056237;28;20003;-67
2023/10/03 12:42:28;;;;;;;;;;;35.00;26.20;;;;;;5055720;28;19932;-67
2023/10/03 12:44:56;;;;;;;;;;;35.00;25.40;;;;;;5055135;28;19948;-67
2023/10/03 12:47:23;;;;;;;;;;;35.00;26.40;;;;;;5053750;28;19909;-67
2023/10/03 12:49:48;;;;;;;;;;;35.00;27.50;;;;;;5052121;28;19908;-67
2023/10/03 12:52:14;;;;;;;;;;;34.90;26.00;;;;;;5055391;28;19908;-67
2023/10/03 12:54:40;;;;;;;;;;;33.90;26.00;;;;;;5051623;28;19909;-67
2023/10/03 12:57:06;;;;;;;;;;;33.80;26.90;;;;;;5054734;28;19917;-67
2023/10/03 12:59:32;;;;;;;;;;;33.90;26.50;;;;;;5062513;28;20424;-67
2023/10/03 13:01:59;;;;;;;;;;;33.70;26.30;;;;;;5054888;28;19909;-67
2023/10/03 13:04:27;;;;;;;;;;;33.40;26.60;;;;;;5054732;28;19978;-67
2023/10/03 13:06:53;;;;;;;;;;;33.90;27.60;;;;;;5055005;28;19923;-67
2023/10/03 13:09:21;;;;;;;;;;;34.40;26.00;;;;;;5055195;28;19909;-67
2023/10/03 13:11:47;;;;;;;;;;;34.60;26.70;;;;;;5054509;28;20309;-67
2023/10/03 13:14:13;;;;;;;;;;;34.60;26.40;;;;;;5054866;28;19939;-67
2023/10/03 13:16:40;;;;;;;;;;;34.00;25.70;;;;;;5054866;28;19917;-67
2023/10/03 13:19:06;;;;;;;;;;;33.50;25.80;;;;;;5055244;28;19913;-67
2023/10/03 13:21:34;;;;;;;;;;;34.00;25.40;;;;;;5042279;28;19909;-67
2023/10/03 13:24:01;;;;;;;;;;;34.20;25.90;;;;;;5034520;28;20302;-66
2023/10/03 13:26:28;;;;;;;;;;;34.00;26.40;;;;;;5054408;28;19931;-67
2023/10/03 13:28:53;;;;;;;;;;;33.50;25.50;;;;;;5055655;28;19916;-67
2023/10/03 13:31:19;;;;;;;;;;;33.40;26.20;;;;;;5054734;28;20377;-67
2023/10/03 13:33:45;;;;;;;;;;;33.70;26.70;;;;;;5055209;28;19916;-67
2023/10/03 13:36:12;;;;;;;;;;;33.80;26.20;;;;;;5055293;28;19909;-67
2023/10/03 13:38:39;;;;;;;;;;;33.30;24.70;;;;;;5055545;28;19913;-67
2023/10/03 13:41:05;;;;;;;;;;;33.30;27.20;;;;;;5054544;28;19916;-67
2023/10/03 13:43:31;;;;;;;;;;;33.00;25.70;;;;;;5055372;28;20321;-67
2023/10/03 13:45:56;;;;;;;;;;;33.00;25.20;;;;;;5054774;28;19909;-67
2023/10/03 13:48:22;;;;;;;;;;;32.90;24.90;;;;;;5055319;28;19916;-67
2023/10/03 13:50:50;;;;;;;;;;;32.60;26.90;;;;;;5055420;28;19909;-67
2023/10/03 13:53:20;;;;;;;;;;;33.00;26.00;;;;;;5055133;28;19913;-67
2023/10/03 13:55:46;;;;;;;;;;;33.10;25.20;;;;;;5038020;28;19924;-66
2023/10/03 13:58:12;;;;;;;;;;;33.10;25.20;;;;;;5058029;28;19912;-66
2023/10/03 14:00:39;;;;;;;;;;;33.20;25.00;;;;;;5065755;28;19916;-66
2023/10/03 14:03:09;;;;;;;;;;;32.80;25.70;;;;;;5054643;28;19916;-66
2023/10/03 14:05:35;;;;;;;;;;;32.60;25.90;;;;;;5056388;28;19915;-66
2023/10/03 14:08:03;;;;;;;;;;;32.40;26.50;;;;;;5058486;28;19920;-66
2023/10/03 14:10:29;;;;;;;;;;;32.50;27.10;;;;;;5058359;28;19915;-66
2023/10/03 14:12:55;;;;;;;;;;;32.40;27.20;;;;;;5057265;28;19909;-66
2023/10/03 14:15:22;;;;;;;;;;;32.20;27.90;;;;;;5057502;28;19913;-66
2023/10/03 14:17:48;;;;;;;;;;;32.50;27.20;;;;;;5057330;28;20278;-66
2023/10/03 14:20:16;;;;;;;;;;;32.40;27.30;;;;;;5056946;28;20354;-66
2023/10/03 14:22:42;;;;;;;;;;;32.50;28.50;;;;;;5055516;28;19991;-66
2023/10/03 14:25:14;;;;;;;;;;;32.20;29.60;;;;;;5058199;28;19908;-66